CPT weather

Cape Town International Airport
Cape Town, Western Cape, South Africa

Public forecast

Using degrees Celsius for public forecast. Weather courtesy of forecast.io.

Current aviation weather report (METAR) for Cape Town International Airport

Retrieved 2020/02/23 00:00 UTC (1 hour ago):

FACT 230000Z 15017KT CAVOK 18/13 Q1019 NOSIG

Aviation forecast (TAF) for Cape Town International Airport

Retrieved 2020-02-23 00:00 UTC (1 hour ago):

TAF FACT 222200Z 2300/2406 16015KT CAVOK TX27/2312Z TN17/2304Z PROB40 TEMPO 2312/2317 17020G30KT